createdAt,value
2023-05-11T00:01:36.036Z,13.40
2023-05-11T00:04:04.268Z,13.50
2023-05-11T00:06:33.568Z,13.40
2023-05-11T00:09:01.730Z,13.30
2023-05-11T00:11:29.841Z,13.30
2023-05-11T00:13:57.936Z,13.40
2023-05-11T00:16:26.159Z,13.40
2023-05-11T00:18:54.433Z,13.30
2023-05-11T00:21:24.061Z,13.40
2023-05-11T00:23:52.422Z,13.30
2023-05-11T00:26:20.449Z,13.30
2023-05-11T00:28:53.128Z,13.30
2023-05-11T00:31:23.959Z,13.30
2023-05-11T00:33:52.164Z,13.20
2023-05-11T00:36:20.339Z,13.20
2023-05-11T00:38:48.502Z,13.20
2023-05-11T00:41:17.238Z,13.20
2023-05-11T00:43:45.402Z,13.20
2023-05-11T00:46:13.509Z,13.20
2023-05-11T00:48:41.650Z,13.20
2023-05-11T00:51:09.900Z,13.20
2023-05-11T00:53:38.086Z,13.20
2023-05-11T00:56:06.257Z,13.10
2023-05-11T00:58:34.447Z,13.10
2023-05-11T01:01:02.594Z,13.10
2023-05-11T01:03:30.865Z,13.10
2023-05-11T01:06:17.783Z,13.10
2023-05-11T01:09:03.274Z,13.10
2023-05-11T01:11:53.916Z,13.10
2023-05-11T01:14:24.454Z,13.10
2023-05-11T01:17:00.435Z,13.00
2023-05-11T01:19:28.606Z,13.00
2023-05-11T01:21:57.071Z,13.00
2023-05-11T01:24:32.186Z,13.00
2023-05-11T01:27:23.253Z,13.00
2023-05-11T01:30:13.268Z,13.00
2023-05-11T01:32:44.356Z,13.00
2023-05-11T01:35:15.109Z,13.00
2023-05-11T01:37:46.442Z,12.90
2023-05-11T01:40:16.836Z,12.90
2023-05-11T01:42:52.673Z,12.80
2023-05-11T01:45:21.944Z,12.80
2023-05-11T01:47:51.583Z,12.70
2023-05-11T01:50:20.885Z,12.70
2023-05-11T01:52:49.307Z,12.60
2023-05-11T01:55:18.816Z,12.60
2023-05-11T01:57:48.358Z,12.70
2023-05-11T02:00:17.892Z,12.60
2023-05-11T02:02:48.754Z,12.70
2023-05-11T02:05:18.820Z,12.80
2023-05-11T02:07:51.051Z,12.80
2023-05-11T02:10:20.432Z,12.80
2023-05-11T02:12:53.571Z,12.80
2023-05-11T02:15:23.614Z,12.90
2023-05-11T02:17:57.700Z,12.90
2023-05-11T02:20:26.555Z,12.80
2023-05-11T02:22:55.574Z,12.70
2023-05-11T02:25:23.993Z,12.70
2023-05-11T02:27:52.204Z,12.70
2023-05-11T02:30:23.569Z,12.70
2023-05-11T02:32:54.394Z,12.70
2023-05-11T02:35:27.527Z,12.70
2023-05-11T02:37:58.108Z,12.60
2023-05-11T02:40:33.492Z,12.60
2023-05-11T02:43:10.648Z,12.50
2023-05-11T02:45:44.246Z,12.60
2023-05-11T02:48:22.639Z,12.50
2023-05-11T02:54:48.728Z,12.50
2023-05-11T02:57:17.576Z,12.40
2023-05-11T02:59:46.779Z,12.30
2023-05-11T03:02:15.765Z,12.30
2023-05-11T03:04:44.379Z,12.40
2023-05-11T03:07:12.594Z,12.40
2023-05-11T03:09:40.697Z,12.50
2023-05-11T03:12:09.625Z,12.50
2023-05-11T03:14:39.396Z,12.60
2023-05-11T03:17:08.048Z,12.60
2023-05-11T03:19:37.088Z,12.60
2023-05-11T03:22:05.739Z,12.60
2023-05-11T03:24:34.253Z,12.60
2023-05-11T03:27:02.705Z,12.50
2023-05-11T03:29:31.245Z,12.50
2023-05-11T03:31:59.385Z,12.50
2023-05-11T03:34:31.966Z,12.40
2023-05-11T03:37:00.975Z,12.50
2023-05-11T03:39:30.833Z,12.50
2023-05-11T03:42:00.547Z,12.50
2023-05-11T03:44:29.612Z,12.40
2023-05-11T03:46:59.028Z,12.40
2023-05-11T03:49:27.357Z,12.30
2023-05-11T03:51:55.902Z,12.20
2023-05-11T03:54:26.077Z,12.20
2023-05-11T03:56:54.432Z,12.30
2023-05-11T03:59:22.616Z,12.20
2023-05-11T04:01:54.342Z,12.20
2023-05-11T04:04:22.655Z,12.30
2023-05-11T04:06:55.018Z,12.30
2023-05-11T04:09:27.387Z,12.40
2023-05-11T04:14:36.309Z,12.40
2023-05-11T04:17:04.384Z,12.40
2023-05-11T04:19:32.693Z,12.40
2023-05-11T04:22:00.738Z,12.40
2023-05-11T04:24:28.858Z,12.40
2023-05-11T04:26:57.380Z,12.40
2023-05-11T04:29:25.501Z,12.40
2023-05-11T04:31:53.757Z,12.40
2023-05-11T04:34:22.111Z,12.50
2023-05-11T04:36:50.737Z,12.40
2023-05-11T04:39:20.410Z,12.30
2023-05-11T04:41:48.630Z,12.30
2023-05-11T04:44:16.941Z,12.20
2023-05-11T04:46:45.082Z,12.20
2023-05-11T04:49:13.438Z,12.10
2023-05-11T04:51:41.863Z,12.10
2023-05-11T04:54:11.755Z,12.20
2023-05-11T04:56:41.954Z,12.20
2023-05-11T04:59:10.619Z,12.20
2023-05-11T05:01:38.894Z,12.20
2023-05-11T05:04:07.286Z,12.20
2023-05-11T05:06:35.525Z,12.20
2023-05-11T05:09:04.618Z,12.20
2023-05-11T05:11:33.479Z,12.20
2023-05-11T05:14:02.436Z,12.10
2023-05-11T05:16:32.463Z,12.10
2023-05-11T05:19:01.092Z,12.10
2023-05-11T05:21:29.368Z,12.20
2023-05-11T05:23:58.020Z,12.30
2023-05-11T05:26:26.058Z,12.30
2023-05-11T05:28:57.173Z,12.30
2023-05-11T05:31:28.872Z,12.40
2023-05-11T05:33:57.200Z,12.40
2023-05-11T05:36:26.221Z,12.30
2023-05-11T05:38:54.374Z,12.30
2023-05-11T05:41:24.329Z,12.30
2023-05-11T05:43:53.283Z,12.20
2023-05-11T05:46:21.445Z,12.20
2023-05-11T05:48:49.625Z,12.10
2023-05-11T05:51:17.828Z,12.10
2023-05-11T05:53:46.093Z,12.10
2023-05-11T05:56:14.199Z,12.10
2023-05-11T05:58:42.305Z,12.10
2023-05-11T06:01:11.186Z,12.10
2023-05-11T06:03:41.599Z,12.10
2023-05-11T06:06:09.797Z,12.10
2023-05-11T06:08:38.553Z,12.10
2023-05-11T06:11:06.753Z,12.20
2023-05-11T06:13:34.838Z,12.30
2023-05-11T06:16:03.457Z,12.40
2023-05-11T06:18:35.568Z,12.50
2023-05-11T06:21:06.812Z,12.60
2023-05-11T06:23:35.263Z,12.60
2023-05-11T06:26:03.553Z,12.60
2023-05-11T06:28:33.824Z,12.60
2023-05-11T06:31:05.632Z,12.60
2023-05-11T06:33:37.074Z,12.70
2023-05-11T06:36:10.081Z,12.80
2023-05-11T06:38:38.226Z,12.90
2023-05-11T06:41:20.165Z,12.90
2023-05-11T06:43:49.935Z,13.00
2023-05-11T06:46:27.821Z,13.10
2023-05-11T06:48:56.091Z,13.10
2023-05-11T06:51:25.376Z,13.20
2023-05-11T06:53:53.397Z,13.20
2023-05-11T06:56:21.505Z,13.20
2023-05-11T06:58:49.726Z,13.20
2023-05-11T07:01:18.235Z,13.30
2023-05-11T07:03:46.352Z,13.10
2023-05-11T07:06:14.380Z,13.00
2023-05-11T07:08:42.616Z,13.00
2023-05-11T07:11:10.737Z,13.00
2023-05-11T07:13:38.763Z,12.80
2023-05-11T07:16:06.978Z,12.80
2023-05-11T07:18:35.171Z,12.80
2023-05-11T07:21:03.269Z,12.80
2023-05-11T07:23:31.329Z,12.90
2023-05-11T07:25:59.547Z,12.80
2023-05-11T07:28:27.780Z,12.80
2023-05-11T07:30:55.799Z,12.80
2023-05-11T07:33:23.858Z,12.90
2023-05-11T07:35:52.857Z,12.90
2023-05-11T07:38:21.098Z,12.90
2023-05-11T07:40:49.125Z,12.90
2023-05-11T07:43:17.212Z,12.90
2023-05-11T07:45:45.650Z,12.80
2023-05-11T07:48:13.918Z,12.90
2023-05-11T07:50:43.721Z,12.90
2023-05-11T07:53:12.149Z,12.90
2023-05-11T07:55:40.295Z,13.00
2023-05-11T07:58:08.417Z,13.00
2023-05-11T08:00:36.666Z,13.00
2023-05-11T08:03:04.749Z,13.10
2023-05-11T08:05:34.711Z,13.10
2023-05-11T08:08:03.262Z,13.10
2023-05-11T08:10:31.325Z,13.00
2023-05-11T08:12:59.833Z,13.10
2023-05-11T08:15:28.313Z,13.20
2023-05-11T08:17:56.517Z,13.20
2023-05-11T08:20:24.559Z,13.20
2023-05-11T08:22:53.743Z,13.30
2023-05-11T08:25:24.555Z,13.40
2023-05-11T08:27:52.685Z,13.30
2023-05-11T08:30:23.665Z,13.20
2023-05-11T08:32:58.460Z,13.20
2023-05-11T08:35:27.506Z,13.20
2023-05-11T08:37:55.515Z,13.30
2023-05-11T08:40:25.284Z,13.40
2023-05-11T08:42:54.756Z,13.40
2023-05-11T08:45:23.952Z,13.30
2023-05-11T08:47:52.085Z,13.30
2023-05-11T08:50:20.500Z,13.30
2023-05-11T08:52:48.853Z,13.40
2023-05-11T08:55:17.369Z,13.50
2023-05-11T08:57:47.049Z,13.50
2023-05-11T09:00:15.759Z,13.30
2023-05-11T09:02:44.152Z,13.30
2023-05-11T09:05:12.653Z,13.40
2023-05-11T09:07:43.256Z,13.50
2023-05-11T09:10:13.688Z,13.50
2023-05-11T09:12:42.105Z,13.50
2023-05-11T09:15:10.390Z,13.50
2023-05-11T09:17:38.706Z,13.50
2023-05-11T09:20:08.422Z,13.50
2023-05-11T09:22:44.280Z,13.50
2023-05-11T09:25:13.615Z,13.50
2023-05-11T09:27:45.473Z,13.60
2023-05-11T09:30:22.152Z,13.70
2023-05-11T09:33:01.340Z,13.70
2023-05-11T09:35:33.430Z,13.60
2023-05-11T09:38:11.628Z,13.80
2023-05-11T09:40:46.309Z,13.80
2023-05-11T09:43:19.452Z,13.80
2023-05-11T09:45:48.761Z,13.80
2023-05-11T09:48:23.161Z,13.90
2023-05-11T09:50:51.875Z,13.90
2023-05-11T09:53:20.102Z,14.00
2023-05-11T09:55:52.463Z,14.10
2023-05-11T09:58:20.543Z,14.00
2023-05-11T10:00:58.928Z,13.90
2023-05-11T10:03:31.828Z,13.80
2023-05-11T10:06:01.320Z,13.70
2023-05-11T10:08:30.708Z,13.70
2023-05-11T10:10:59.267Z,13.70
2023-05-11T10:13:28.365Z,13.60
2023-05-11T10:15:57.391Z,13.50
2023-05-11T10:18:25.613Z,13.50
2023-05-11T10:20:54.394Z,13.40
2023-05-11T10:23:22.886Z,13.50
2023-05-11T10:25:51.691Z,13.50
2023-05-11T10:28:19.864Z,13.60
2023-05-11T10:30:48.441Z,13.60
2023-05-11T10:33:16.621Z,13.60
2023-05-11T10:35:45.445Z,13.70
2023-05-11T10:38:14.832Z,13.80
2023-05-11T10:40:48.763Z,13.80
2023-05-11T10:43:22.140Z,13.90
2023-05-11T10:48:55.033Z,13.60
2023-05-11T10:51:33.802Z,13.60
2023-05-11T10:54:22.055Z,13.70
2023-05-11T11:00:48.102Z,14.00
2023-05-11T11:06:26.677Z,14.00
2023-05-11T11:09:01.535Z,14.10
2023-05-11T11:11:37.682Z,13.90
2023-05-11T11:14:07.593Z,13.90
2023-05-11T11:16:38.140Z,13.90
2023-05-11T11:19:26.081Z,14.00
2023-05-11T11:22:02.284Z,14.00
2023-05-11T11:24:37.083Z,14.10
2023-05-11T11:27:11.344Z,14.00
2023-05-11T11:29:42.497Z,13.90
2023-05-11T11:32:24.902Z,13.90
2023-05-11T11:34:58.061Z,14.00
2023-05-11T11:37:41.579Z,14.00
2023-05-11T11:40:17.713Z,14.00
2023-05-11T11:45:30.813Z,14.10
2023-05-11T11:48:16.265Z,14.10
2023-05-11T11:50:56.382Z,14.00
2023-05-11T11:54:01.217Z,14.00
2023-05-11T11:56:39.661Z,13.90
2023-05-11T11:59:15.665Z,13.70
2023-05-11T12:01:45.419Z,13.70
2023-05-11T12:04:32.769Z,13.60
2023-05-11T12:07:01.242Z,13.60
2023-05-11T12:09:41.687Z,13.70
2023-05-11T12:12:10.554Z,13.70
2023-05-11T12:14:41.507Z,13.70
2023-05-11T12:17:14.718Z,13.60
2023-05-11T12:19:43.941Z,13.50
2023-05-11T12:22:12.543Z,13.50
2023-05-11T12:24:40.783Z,13.60
2023-05-11T12:27:08.848Z,13.60
2023-05-11T12:29:36.939Z,13.50
2023-05-11T12:32:05.707Z,13.40
2023-05-11T12:34:33.810Z,13.40
2023-05-11T12:37:07.231Z,13.50
2023-05-11T12:39:37.313Z,13.50
2023-05-11T12:42:05.707Z,13.50
2023-05-11T12:44:34.706Z,13.50
2023-05-11T12:47:10.388Z,13.60
2023-05-11T12:49:42.990Z,13.70
2023-05-11T12:52:12.366Z,13.80
2023-05-11T12:54:41.592Z,13.90
2023-05-11T12:57:10.497Z,13.90
2023-05-11T12:59:40.428Z,13.90
2023-05-11T13:02:22.172Z,13.90
2023-05-11T13:04:54.209Z,13.90
2023-05-11T13:07:26.715Z,14.00
2023-05-11T13:09:59.390Z,13.90
2023-05-11T13:12:30.996Z,13.80
2023-05-11T13:15:08.150Z,13.70
2023-05-11T13:17:38.076Z,13.70
2023-05-11T13:20:27.901Z,13.70
2023-05-11T13:23:10.412Z,13.70
2023-05-11T13:25:48.484Z,13.60
2023-05-11T13:28:17.148Z,13.50
2023-05-11T13:30:45.551Z,13.50
2023-05-11T13:33:13.877Z,13.30
2023-05-11T13:35:42.965Z,13.30
2023-05-11T13:38:12.020Z,13.20
2023-05-11T13:40:40.509Z,13.20
2023-05-11T13:43:08.781Z,13.10
2023-05-11T13:45:37.842Z,13.10
2023-05-11T13:48:06.055Z,13.00
2023-05-11T13:50:34.113Z,12.90
2023-05-11T13:53:02.864Z,12.80
2023-05-11T13:55:31.383Z,12.80
2023-05-11T13:57:59.612Z,12.80
2023-05-11T14:00:27.819Z,12.90
2023-05-11T14:02:56.492Z,13.00
2023-05-11T14:05:24.819Z,13.10
2023-05-11T14:07:52.989Z,13.10
2023-05-11T14:10:21.286Z,13.30
2023-05-11T14:12:52.673Z,13.40
2023-05-11T14:15:21.471Z,13.50
2023-05-11T14:17:49.988Z,13.50
2023-05-11T14:20:18.282Z,13.50
2023-05-11T14:22:46.730Z,13.40
2023-05-11T14:25:18.648Z,13.40
2023-05-11T14:27:47.442Z,13.50
2023-05-11T14:30:15.565Z,13.60
2023-05-11T14:32:43.682Z,13.70
2023-05-11T14:35:12.107Z,13.70
2023-05-11T14:37:40.861Z,13.70
2023-05-11T14:40:12.300Z,13.60
2023-05-11T14:42:40.450Z,13.60
2023-05-11T14:45:12.109Z,13.70
2023-05-11T14:47:42.003Z,13.70
2023-05-11T14:50:13.081Z,13.80
2023-05-11T14:52:42.216Z,13.80
2023-05-11T14:55:10.338Z,13.90
2023-05-11T14:57:38.505Z,13.80
2023-05-11T15:00:07.004Z,13.80
2023-05-11T15:02:35.375Z,13.80
2023-05-11T15:05:03.729Z,13.90
2023-05-11T15:07:32.004Z,13.90
2023-05-11T15:10:02.963Z,14.00
2023-05-11T15:12:31.261Z,14.00
2023-05-11T15:14:59.373Z,14.00
2023-05-11T15:17:30.454Z,14.00
2023-05-11T15:19:58.656Z,14.00
2023-05-11T15:22:26.746Z,14.00
2023-05-11T15:24:54.984Z,14.00
2023-05-11T15:27:23.303Z,14.00
2023-05-11T15:29:51.501Z,14.00
2023-05-11T15:32:19.652Z,14.00
2023-05-11T15:34:59.105Z,14.00
2023-05-11T15:37:28.882Z,13.90
2023-05-11T15:39:57.335Z,13.80
2023-05-11T15:42:25.688Z,13.70
2023-05-11T15:44:53.907Z,13.70
2023-05-11T15:47:22.219Z,13.70
2023-05-11T15:49:50.379Z,13.70
2023-05-11T15:52:18.489Z,13.70
2023-05-11T15:54:46.524Z,13.70
2023-05-11T15:57:14.692Z,13.70
2023-05-11T15:59:42.743Z,13.70
2023-05-11T16:02:10.848Z,13.70
2023-05-11T16:04:39.006Z,13.70
2023-05-11T16:07:09.606Z,13.70
2023-05-11T16:09:40.771Z,13.60
2023-05-11T16:12:12.314Z,13.50
2023-05-11T16:14:40.549Z,13.40
2023-05-11T16:17:09.068Z,13.40
2023-05-11T16:25:12.234Z,13.20
2023-05-11T16:27:44.146Z,13.20
2023-05-11T16:30:22.389Z,13.10
2023-05-11T16:33:03.828Z,13.00
2023-05-11T16:35:34.958Z,13.00
2023-05-11T16:38:10.104Z,13.00
2023-05-11T16:40:46.418Z,13.00
2023-05-11T16:43:18.094Z,13.00
2023-05-11T16:45:49.702Z,13.00
2023-05-11T16:48:26.844Z,13.00
2023-05-11T16:54:00.616Z,13.00
2023-05-11T16:56:30.171Z,13.00
2023-05-11T16:59:16.183Z,13.00
2023-05-11T17:01:50.109Z,12.90
2023-05-11T17:04:20.217Z,12.90
2023-05-11T17:06:53.470Z,12.80
2023-05-11T17:09:21.555Z,12.80
2023-05-11T17:11:49.732Z,12.70
2023-05-11T17:14:18.066Z,12.70
2023-05-11T17:16:46.147Z,12.60
2023-05-11T17:19:14.639Z,12.50
2023-05-11T17:21:42.689Z,12.40
2023-05-11T17:24:10.799Z,12.40
2023-05-11T17:26:47.988Z,12.30
2023-05-11T17:29:25.997Z,12.20
2023-05-11T17:31:54.643Z,12.10
2023-05-11T17:34:27.013Z,12.00
2023-05-11T17:36:56.719Z,12.00
2023-05-11T17:39:24.936Z,12.10
2023-05-11T17:41:53.012Z,12.10
2023-05-11T17:44:21.015Z,12.00
2023-05-11T17:46:49.174Z,12.10
2023-05-11T17:49:17.569Z,12.10
2023-05-11T17:51:45.600Z,12.10
2023-05-11T17:54:13.641Z,12.10
2023-05-11T17:56:42.495Z,12.10
2023-05-11T17:59:10.534Z,12.10
2023-05-11T18:01:38.712Z,12.10
2023-05-11T18:04:07.259Z,12.10
2023-05-11T18:06:40.403Z,12.10
2023-05-11T18:09:10.462Z,12.00
2023-05-11T18:11:39.076Z,12.10
2023-05-11T18:14:07.221Z,12.10
2023-05-11T18:16:36.522Z,12.10
2023-05-11T18:19:05.890Z,12.00
2023-05-11T18:21:34.843Z,12.00
2023-05-11T18:24:03.614Z,12.00
2023-05-11T18:26:32.060Z,12.00
2023-05-11T18:29:04.551Z,12.00
2023-05-11T18:31:38.241Z,12.00
2023-05-11T18:34:06.603Z,12.10
2023-05-11T18:36:37.296Z,12.00
2023-05-11T18:39:06.305Z,12.00
2023-05-11T18:41:39.605Z,12.00
2023-05-11T18:44:07.901Z,12.10
2023-05-11T18:46:35.962Z,12.10
2023-05-11T18:49:04.096Z,12.10
2023-05-11T18:51:32.897Z,12.10
2023-05-11T18:54:01.254Z,12.00
2023-05-11T18:56:29.412Z,12.00
2023-05-11T18:58:57.553Z,12.00
2023-05-11T19:01:33.055Z,12.00
2023-05-11T19:04:11.040Z,11.90
2023-05-11T19:06:39.243Z,11.90
2023-05-11T19:09:07.349Z,11.90
2023-05-11T19:11:36.735Z,11.90
2023-05-11T19:14:06.007Z,11.90
2023-05-11T19:16:36.994Z,11.90
2023-05-11T19:19:05.231Z,11.90
2023-05-11T19:21:33.414Z,11.90
2023-05-11T19:24:01.684Z,11.90
2023-05-11T19:26:30.162Z,11.90
2023-05-11T19:28:58.216Z,11.90
2023-05-11T19:31:28.793Z,11.90
2023-05-11T19:33:56.891Z,12.00
2023-05-11T19:36:25.415Z,11.90
2023-05-11T19:38:53.811Z,11.90
2023-05-11T19:41:22.519Z,11.90
2023-05-11T19:43:51.103Z,11.80
2023-05-11T19:46:19.284Z,11.90
2023-05-11T19:48:47.592Z,11.90
2023-05-11T19:51:15.703Z,11.90
2023-05-11T19:53:44.852Z,11.90
2023-05-11T19:56:12.916Z,11.90
2023-05-11T19:58:40.968Z,11.90
2023-05-11T20:01:09.194Z,11.90
2023-05-11T20:03:44.906Z,11.90
2023-05-11T20:06:13.069Z,11.90
2023-05-11T20:08:41.194Z,11.80
2023-05-11T20:11:09.231Z,11.80
2023-05-11T20:13:37.367Z,11.90
2023-05-11T20:16:05.508Z,11.90
2023-05-11T20:18:33.670Z,11.90
2023-05-11T20:21:01.838Z,11.90
2023-05-11T20:23:29.831Z,11.90
2023-05-11T20:25:57.829Z,11.80
2023-05-11T20:28:28.531Z,11.70
2023-05-11T20:30:57.578Z,11.70
2023-05-11T20:35:57.093Z,11.70
2023-05-11T20:38:25.107Z,11.70
2023-05-11T20:40:57.603Z,11.70
2023-05-11T20:43:29.203Z,11.60
2023-05-11T20:46:02.941Z,11.60
2023-05-11T20:48:40.095Z,11.50
2023-05-11T20:51:09.011Z,11.60
2023-05-11T20:53:38.876Z,11.60
2023-05-11T20:56:07.153Z,11.60
2023-05-11T20:58:35.262Z,11.60
2023-05-11T21:01:03.380Z,11.70
2023-05-11T21:03:31.447Z,11.70
2023-05-11T21:06:00.041Z,11.70
2023-05-11T21:08:28.972Z,11.70
2023-05-11T21:10:57.298Z,11.70
2023-05-11T21:13:27.635Z,11.70
2023-05-11T21:15:55.704Z,11.70
2023-05-11T21:18:23.786Z,11.70
2023-05-11T21:20:54.237Z,11.70
2023-05-11T21:23:22.836Z,11.70
2023-05-11T21:25:54.496Z,11.70
2023-05-11T21:28:22.596Z,11.70
2023-05-11T21:30:51.267Z,11.70
2023-05-11T21:33:19.298Z,11.70
2023-05-11T21:35:47.708Z,11.70
2023-05-11T21:38:18.984Z,11.70
2023-05-11T21:40:51.695Z,11.70
2023-05-11T21:43:20.046Z,11.70
2023-05-11T21:45:48.624Z,11.70
2023-05-11T21:48:16.972Z,11.70
2023-05-11T21:50:45.447Z,11.70
2023-05-11T21:53:14.015Z,11.70
2023-05-11T21:55:42.142Z,11.70
2023-05-11T21:58:10.280Z,11.60
2023-05-11T22:00:39.243Z,11.60
2023-05-11T22:03:07.446Z,11.60
2023-05-11T22:05:35.604Z,11.60
2023-05-11T22:08:13.957Z,11.60
2023-05-11T22:10:44.358Z,11.60
2023-05-11T22:13:12.482Z,11.60
2023-05-11T22:15:40.557Z,11.60
2023-05-11T22:18:08.705Z,11.60
2023-05-11T22:20:36.909Z,11.60
2023-05-11T22:23:04.946Z,11.60
2023-05-11T22:25:33.545Z,11.60
2023-05-11T22:28:02.073Z,11.60
2023-05-11T22:30:30.136Z,11.60
2023-05-11T22:32:58.262Z,11.60
2023-05-11T22:35:26.999Z,11.50
2023-05-11T22:37:57.953Z,11.50
2023-05-11T22:40:26.002Z,11.40
2023-05-11T22:42:54.804Z,11.40
2023-05-11T22:45:25.184Z,11.40
2023-05-11T22:47:53.444Z,11.40
2023-05-11T22:50:21.790Z,11.40
2023-05-11T22:52:50.042Z,11.40
2023-05-11T22:55:18.176Z,11.40
2023-05-11T22:57:46.340Z,11.40
2023-05-11T23:00:15.368Z,11.40
2023-05-11T23:02:44.283Z,11.40
2023-05-11T23:05:12.852Z,11.40
2023-05-11T23:07:40.986Z,11.40
2023-05-11T23:10:09.140Z,11.40
2023-05-11T23:12:37.169Z,11.40
2023-05-11T23:15:05.397Z,11.40
2023-05-11T23:17:33.533Z,11.40
2023-05-11T23:20:01.830Z,11.40
2023-05-11T23:22:30.159Z,11.50
2023-05-11T23:24:58.282Z,11.40
2023-05-11T23:27:26.339Z,11.40
2023-05-11T23:29:54.419Z,11.50
2023-05-11T23:32:22.459Z,11.50
2023-05-11T23:34:50.494Z,11.40
2023-05-11T23:37:18.537Z,11.50
2023-05-11T23:39:46.564Z,11.40
2023-05-11T23:42:14.562Z,11.40
2023-05-11T23:44:42.629Z,11.40
2023-05-11T23:47:10.874Z,11.40
2023-05-11T23:49:38.965Z,11.40
2023-05-11T23:52:07.217Z,11.40
2023-05-11T23:54:35.231Z,11.40
2023-05-11T23:57:03.457Z,11.40
2023-05-11T23:59:31.628Z,11.40
